Time;durP1;ratioP1;P1;durP2;ratioP2;P2;SDS_P1;SDS_P2;PMS_P1;PMS_P2;Temp;Humidity;BMP_temperature;BMP_pressure;BME280_temperature;BME280_humidity;BME280_pressure;Samples;Min_cycle;Max_cycle;Signal;HPM_P1;HPM_P2
2022/02/28 00:01:56;;;;;;;19.15;6.03;;;;;;;-149.78;100.00;50342.38;4755292;30;20048;-69
2022/02/28 00:04:22;;;;;;;15.45;6.22;;;;;;;-149.78;100.00;50350.19;4739376;30;20111;-69
2022/02/28 00:06:48;;;;;;;17.05;6.38;;;;;;;-149.78;100.00;50332.59;4753162;30;20499;-68
2022/02/28 00:09:15;;;;;;;20.15;6.07;;;;;;;-149.78;100.00;50324.75;4754982;30;20039;-69
2022/02/28 00:11:41;;;;;;;15.90;6.13;;;;;;;-149.78;100.00;50322.81;4754884;30;20070;-68
2022/02/28 00:14:06;;;;;;;15.52;6.72;;;;;;;-149.78;100.00;50354.09;4754997;30;20052;-69
2022/02/28 00:16:32;;;;;;;14.73;5.93;;;;;;;-149.78;100.00;50350.19;4755021;30;20105;-69
2022/02/28 00:18:57;;;;;;;14.63;6.22;;;;;;;-149.78;100.00;50305.22;4754901;30;20068;-69
2022/02/28 00:21:23;;;;;;;15.13;6.13;;;;;;;-149.78;100.00;50346.28;4758857;30;20050;-69
2022/02/28 00:23:48;;;;;;;13.13;5.95;;;;;;;-149.78;100.00;50342.38;4769837;30;20463;-68
2022/02/28 00:26:14;;;;;;;18.75;6.63;;;;;;;-149.78;100.00;50350.19;4738910;30;20115;-68
2022/02/28 00:28:40;;;;;;;18.92;6.50;;;;;;;-149.78;100.00;50358.00;4754724;30;20056;-68
2022/02/28 00:31:06;;;;;;;20.02;6.25;;;;;;;-149.78;100.00;50344.31;4754759;30;20043;-69
2022/02/28 00:33:31;;;;;;;17.77;7.00;;;;;;;-149.78;100.00;50354.09;4754742;30;20081;-69
2022/02/28 00:35:58;;;;;;;17.08;6.63;;;;;;;-149.78;100.00;50346.28;4754779;30;20047;-69
2022/02/28 00:38:24;;;;;;;19.38;7.32;;;;;;;-149.78;100.00;50334.53;4754724;30;20074;-69
2022/02/28 00:40:51;;;;;;;19.67;7.00;;;;;;;-149.78;100.00;50350.19;4754476;30;20040;-69
2022/02/28 00:43:17;;;;;;;24.35;7.82;;;;;;;-149.78;100.00;50336.50;4754600;30;20047;-69
2022/02/28 00:45:43;;;;;;;18.17;6.82;;;;;;;-149.78;100.00;50350.19;4754621;30;20061;-69
2022/02/28 00:48:10;;;;;;;22.35;6.50;;;;;;;-149.78;100.00;50361.91;4754583;30;20041;-68
2022/02/28 00:50:36;;;;;;;19.98;6.50;;;;;;;-149.78;100.00;50369.75;4738668;30;20159;-68
2022/02/28 00:53:03;;;;;;;12.48;6.00;;;;;;;-149.78;100.00;50322.81;4753752;30;20047;-69
2022/02/28 00:55:29;;;;;;;18.08;6.53;;;;;;;-149.78;100.00;50361.91;4753894;30;20075;-69
2022/02/28 00:57:55;;;;;;;18.70;6.70;;;;;;;-149.78;100.00;50334.53;4754386;30;20474;-69
2022/02/28 01:00:21;;;;;;;17.48;7.43;;;;;;;-149.78;100.00;50338.44;4754220;30;20060;-69
2022/02/28 01:02:47;;;;;;;17.27;7.13;;;;;;;-149.78;100.00;50328.69;4754210;30;20739;-69
2022/02/28 01:05:18;;;;;;;18.98;5.65;;;;;;;-149.78;100.00;50373.66;4754191;30;20409;-68
2022/02/28 01:07:47;;;;;;;20.52;6.88;;;;;;;-149.78;100.00;50350.19;4754358;30;20051;-68
2022/02/28 01:10:20;;;;;;;18.02;6.35;;;;;;;-149.78;100.00;50346.28;4754373;30;20040;-69
2022/02/28 01:12:47;;;;;;;21.88;6.15;;;;;;;-149.78;100.00;50358.00;4753941;30;20066;-69
2022/02/28 01:15:18;;;;;;;17.02;7.10;;;;;;;-149.78;100.00;50342.38;4753948;30;20060;-69
2022/02/28 01:17:46;;;;;;;20.83;6.97;;;;;;;-149.78;100.00;50336.50;4754073;30;20072;-68
2022/02/28 01:20:14;;;;;;;17.63;7.47;;;;;;;-149.78;100.00;50330.63;4753830;30;20044;-68
2022/02/28 01:22:40;;;;;;;17.88;7.45;;;;;;;-149.78;100.00;50295.44;4767168;30;20059;-68
2022/02/28 01:25:08;;;;;;;24.15;7.15;;;;;;;-149.78;100.00;50307.16;4771834;30;20410;-69
2022/02/28 01:27:35;;;;;;;14.60;6.68;;;;;;;-149.78;100.00;50326.72;4771470;30;20112;-69
2022/02/28 01:30:01;;;;;;;22.02;7.05;;;;;;;-149.78;100.00;50330.63;4771742;30;20040;-69
2022/02/28 01:32:27;;;;;;;20.25;6.50;;;;;;;-149.78;100.00;50311.06;4755653;30;20044;-69
2022/02/28 01:34:53;;;;;;;22.02;7.05;;;;;;;-149.78;100.00;50350.19;4771368;30;20047;-68
2022/02/28 01:37:18;;;;;;;18.48;7.32;;;;;;;-149.78;100.00;50346.28;4771349;30;20043;-68
2022/02/28 01:39:46;;;;;;;17.00;7.20;;;;;;;-149.78;100.00;50287.59;4771363;30;20042;-68
2022/02/28 01:42:15;;;;;;;17.15;7.43;;;;;;;-149.78;100.00;50352.16;4771306;30;20130;-68
2022/02/28 01:44:42;;;;;;;16.83;7.18;;;;;;;-149.78;100.00;50299.34;4755298;30;20036;-68
2022/02/28 01:47:11;;;;;;;18.98;7.28;;;;;;;-149.78;100.00;50369.75;4771337;30;20047;-68
2022/02/28 01:49:38;;;;;;;18.45;7.75;;;;;;;-149.78;100.00;50356.06;4769341;30;20040;-68
2022/02/28 01:52:04;;;;;;;18.73;7.22;;;;;;;-149.78;100.00;50322.81;4753400;30;20041;-69
2022/02/28 01:54:31;;;;;;;21.13;7.65;;;;;;;-149.78;100.00;50346.28;4753437;30;20048;-69
2022/02/28 01:56:57;;;;;;;16.50;7.45;;;;;;;-149.78;100.00;50338.44;4737640;30;20878;-69
2022/02/28 01:59:23;;;;;;;25.20;8.40;;;;;;;-149.78;100.00;50330.63;4737516;30;20138;-69
2022/02/28 02:01:48;;;;;;;19.77;7.65;;;;;;;-149.78;100.00;50314.97;4752631;30;20044;-69
2022/02/28 02:04:14;;;;;;;26.90;10.45;;;;;;;-149.78;100.00;50332.59;4765001;30;20118;-68
2022/02/28 02:06:40;;;;;;;21.75;8.65;;;;;;;-149.78;100.00;50346.28;4762442;30;20043;-69
2022/02/28 02:09:06;;;;;;;18.52;8.00;;;;;;;-149.78;100.00;50338.44;4769615;30;20062;-68
2022/02/28 02:11:32;;;;;;;21.38;8.57;;;;;;;-149.78;100.00;50342.38;4770741;30;20216;-68
2022/02/28 02:13:58;;;;;;;24.05;9.35;;;;;;;-149.78;100.00;50350.19;4770696;30;20055;-69
2022/02/28 02:16:24;;;;;;;21.40;7.72;;;;;;;-149.78;100.00;50287.59;4753847;30;20469;-68
2022/02/28 02:18:50;;;;;;;27.27;8.95;;;;;;;-149.78;100.00;50352.16;4752910;30;20047;-69
2022/02/28 02:21:16;;;;;;;21.00;9.02;;;;;;;-149.78;100.00;50334.53;4761270;30;20374;-68
2022/02/28 02:23:42;;;;;;;20.42;7.95;;;;;;;-149.78;100.00;50334.53;4765141;30;20047;-68
2022/02/28 02:26:13;;;;;;;21.40;9.18;;;;;;;-149.78;100.00;50361.91;4770672;30;20051;-69
2022/02/28 02:28:43;;;;;;;21.10;8.90;;;;;;;-149.78;100.00;50350.19;4770728;30;20051;-69
2022/02/28 02:31:09;;;;;;;20.05;8.15;;;;;;;-149.78;100.00;50318.91;4770690;30;20043;-69
2022/02/28 02:33:35;;;;;;;26.10;8.57;;;;;;;-149.78;100.00;50330.63;4761645;30;20051;-69
2022/02/28 02:36:04;;;;;;;22.90;8.25;;;;;;;-149.78;100.00;50373.66;4754112;30;20439;-69
2022/02/28 02:38:33;;;;;;;23.55;7.78;;;;;;;-149.78;100.00;50338.44;4770480;30;20532;-69
2022/02/28 02:40:59;;;;;;;27.02;8.40;;;;;;;-149.78;100.00;50350.19;4770479;30;20082;-68
2022/02/28 02:43:24;;;;;;;29.30;9.15;;;;;;;-149.78;100.00;50314.97;4769419;30;20478;-69
2022/02/28 02:45:50;;;;;;;23.20;8.50;;;;;;;-149.78;100.00;50318.91;4739900;30;20142;-69
2022/02/28 02:48:23;;;;;;;24.23;8.82;;;;;;;-149.78;100.00;50363.88;4752125;30;20075;-69
2022/02/28 02:50:50;;;;;;;30.00;10.73;;;;;;;-149.78;100.00;50307.16;4753896;30;20507;-68
2022/02/28 02:53:17;;;;;;;26.70;9.40;;;;;;;-149.78;100.00;50314.97;4753897;30;20220;-69
2022/02/28 02:55:43;;;;;;;26.13;10.02;;;;;;;-149.78;100.00;50330.63;4770230;30;20039;-69
2022/02/28 02:58:13;;;;;;;24.77;9.77;;;;;;;-149.78;100.00;50369.75;4770404;30;20461;-69
2022/02/28 03:00:40;;;;;;;26.25;9.27;;;;;;;-149.78;100.00;50354.09;4770151;30;20044;-69
2022/02/28 03:03:06;;;;;;;25.73;9.15;;;;;;;-149.78;100.00;50330.63;4769114;30;20036;-69
2022/02/28 03:05:31;;;;;;;31.42;9.82;;;;;;;-149.78;100.00;50328.69;4754507;30;20404;-69
2022/02/28 03:07:57;;;;;;;24.92;9.82;;;;;;;-149.78;100.00;50326.72;4769054;30;20036;-69
2022/02/28 03:10:22;;;;;;;21.95;9.25;;;;;;;-149.78;100.00;50361.91;4770015;30;20703;-69
2022/02/28 03:12:48;;;;;;;31.95;10.55;;;;;;;-149.78;100.00;50328.69;4770128;30;20043;-69
2022/02/28 03:15:13;;;;;;;20.52;9.02;;;;;;;-149.78;100.00;50324.75;4771062;30;20060;-69
2022/02/28 03:17:39;;;;;;;19.95;8.50;;;;;;;-149.78;100.00;50326.72;4773784;30;20473;-69
2022/02/28 03:20:05;;;;;;;26.80;9.38;;;;;;;-149.78;100.00;50369.75;4773696;30;20035;-69
2022/02/28 03:22:31;;;;;;;24.02;8.93;;;;;;;-149.78;100.00;50334.53;4773754;30;20079;-69
2022/02/28 03:24:56;;;;;;;30.20;9.63;;;;;;;-149.78;100.00;50338.44;4767574;30;20067;-69
2022/02/28 03:27:22;;;;;;;22.05;9.27;;;;;;;-149.78;100.00;50334.53;4772321;30;20104;-69
2022/02/28 03:29:47;;;;;;;32.95;10.35;;;;;;;-149.78;100.00;50326.72;4757632;30;20043;-69
2022/02/28 03:32:13;;;;;;;21.40;9.45;;;;;;;-149.78;100.00;50303.25;4773561;30;20126;-69
2022/02/28 03:34:39;;;;;;;25.00;9.07;;;;;;;-149.78;100.00;50358.00;4773543;30;20066;-69
2022/02/28 03:37:04;;;;;;;23.58;9.70;;;;;;;-149.78;100.00;50307.16;4772189;30;20064;-69
2022/02/28 03:39:30;;;;;;;21.50;9.70;;;;;;;-149.78;100.00;50326.72;4773473;30;20142;-69
2022/02/28 03:41:56;;;;;;;29.27;10.52;;;;;;;-149.78;100.00;50350.19;4773404;30;20040;-68
2022/02/28 03:44:22;;;;;;;25.77;10.13;;;;;;;-149.78;100.00;50338.44;4773392;30;20042;-69
2022/02/28 03:46:50;;;;;;;35.97;10.43;;;;;;;-149.78;100.00;50314.97;4773504;30;20097;-69
2022/02/28 03:49:17;;;;;;;37.22;11.20;;;;;;;-149.78;100.00;50307.16;4757104;30;20135;-69
2022/02/28 03:51:43;;;;;;;26.42;11.35;;;;;;;-149.78;100.00;50346.28;4773339;30;20093;-68
2022/02/28 03:54:12;;;;;;;27.50;11.13;;;;;;;-149.78;100.00;50350.19;4773167;30;20093;-69
2022/02/28 03:56:38;;;;;;;31.80;10.73;;;;;;;-149.78;100.00;50324.75;4773133;30;20050;-69
2022/02/28 03:59:05;;;;;;;33.47;12.90;;;;;;;-149.78;100.00;50305.22;4769367;30;20039;-69
2022/02/28 04:01:31;;;;;;;35.40;12.57;;;;;;;-149.78;100.00;50305.22;4752117;30;20063;-69
2022/02/28 04:03:57;;;;;;;29.98;11.20;;;;;;;-149.78;100.00;50346.28;4753981;30;20048;-69
2022/02/28 04:06:23;;;;;;;36.53;11.65;;;;;;;-149.78;100.00;50358.00;4754992;30;20055;-69
2022/02/28 04:08:48;;;;;;;30.27;11.50;;;;;;;-149.78;100.00;50334.53;4754290;30;20051;-69
2022/02/28 04:11:14;;;;;;;30.95;11.60;;;;;;;-149.78;100.00;50295.44;4764132;30;20119;-69
2022/02/28 04:13:40;;;;;;;30.50;11.77;;;;;;;-149.78;100.00;50295.44;4772652;30;20084;-69
2022/02/28 04:16:06;;;;;;;30.33;11.45;;;;;;;-149.78;100.00;50334.53;4772692;30;20047;-69
2022/02/28 04:18:32;;;;;;;36.42;12.75;;;;;;;-149.78;100.00;50338.44;4756676;30;20048;-69
2022/02/28 04:20:58;;;;;;;32.78;11.68;;;;;;;-149.78;100.00;50338.44;4772870;30;20048;-69
2022/02/28 04:23:23;;;;;;;29.60;12.70;;;;;;;-149.78;100.00;50344.31;4772736;30;20047;-69
2022/02/28 04:25:49;;;;;;;35.55;12.45;;;;;;;-149.78;100.00;50350.19;4756055;30;20096;-69
2022/02/28 04:28:15;;;;;;;30.38;12.32;;;;;;;-149.78;100.00;50330.63;4754863;30;20044;-69
2022/02/28 04:30:41;;;;;;;35.70;12.73;;;;;;;-149.78;100.00;50342.38;4754881;30;20079;-69
2022/02/28 04:33:06;;;;;;;27.60;12.60;;;;;;;-149.78;100.00;50326.72;4753655;30;20052;-69
2022/02/28 04:35:33;;;;;;;29.95;11.48;;;;;;;-149.78;100.00;50354.09;4754765;30;20055;-69
2022/02/28 04:37:58;;;;;;;39.47;13.77;;;;;;;-149.78;100.00;50330.63;4754729;30;20503;-69
2022/02/28 04:40:24;;;;;;;33.50;12.40;;;;;;;-149.78;100.00;50354.09;4754697;30;20039;-69
2022/02/28 04:42:50;;;;;;;41.40;14.32;;;;;;;-149.78;100.00;50338.44;4754618;30;20040;-69
2022/02/28 04:45:16;;;;;;;42.28;12.98;;;;;;;-149.78;100.00;50338.44;4754585;30;20121;-69
2022/02/28 04:47:42;;;;;;;31.17;13.65;;;;;;;-149.78;100.00;50342.38;4754514;30;20044;-69
2022/02/28 04:50:08;;;;;;;35.53;14.20;;;;;;;-149.78;100.00;50326.72;4754437;30;20040;-69
2022/02/28 04:52:33;;;;;;;33.83;13.93;;;;;;;-149.78;100.00;50354.09;4754584;30;20044;-69
2022/02/28 04:54:59;;;;;;;36.53;13.48;;;;;;;-149.78;100.00;50328.69;4738686;30;20127;-69
2022/02/28 04:57:25;;;;;;;33.40;13.43;;;;;;;-149.78;100.00;50318.91;4738699;30;20070;-69
2022/02/28 04:59:50;;;;;;;35.08;12.93;;;;;;;-149.78;100.00;50305.22;4763790;30;20055;-68
2022/02/28 05:02:16;;;;;;;29.27;12.90;;;;;;;-149.78;100.00;50330.63;4771892;30;20040;-69
2022/02/28 05:04:41;;;;;;;38.63;13.48;;;;;;;-149.78;100.00;50342.38;4756138;30;20086;-69
2022/02/28 05:07:07;;;;;;;34.65;13.27;;;;;;;-149.78;100.00;50322.81;4756050;30;20147;-69
2022/02/28 05:09:33;;;;;;;40.00;13.07;;;;;;;-149.78;100.00;50346.28;4772009;30;20040;-69
2022/02/28 05:11:59;;;;;;;44.45;13.52;;;;;;;-149.78;100.00;50318.91;4756035;30;20063;-69
2022/02/28 05:14:25;;;;;;;39.00;14.30;;;;;;;-149.78;100.00;50381.47;4746432;30;20136;-69
2022/02/28 05:16:51;;;;;;;41.17;14.23;;;;;;;-149.78;100.00;50338.44;4771863;30;20039;-69
2022/02/28 05:19:16;;;;;;;38.90;14.07;;;;;;;-149.78;100.00;50342.38;4771642;30;20052;-68
2022/02/28 05:21:42;;;;;;;35.67;14.63;;;;;;;-149.78;100.00;50334.53;4771751;30;20070;-69
2022/02/28 05:24:07;;;;;;;36.15;14.65;;;;;;;-149.78;100.00;50361.91;4767356;30;20470;-69
2022/02/28 05:26:33;;;;;;;39.55;13.43;;;;;;;-149.78;100.00;50359.97;4754054;30;20040;-69
2022/02/28 05:28:59;;;;;;;40.33;13.57;;;;;;;-149.78;100.00;50303.25;4753885;30;20400;-69
2022/02/28 05:31:24;;;;;;;36.60;13.68;;;;;;;-149.78;100.00;50338.44;4753923;30;20044;-69
2022/02/28 05:33:50;;;;;;;35.13;13.88;;;;;;;-149.78;100.00;50297.38;4753816;30;20044;-69
2022/02/28 05:36:16;;;;;;;35.45;13.40;;;;;;;-149.78;100.00;50326.72;4753668;30;20481;-69
2022/02/28 05:38:43;;;;;;;38.92;13.45;;;;;;;-149.78;100.00;50318.91;4753199;30;20382;-69
2022/02/28 05:41:09;;;;;;;43.72;14.35;;;;;;;-149.78;100.00;50314.97;4724823;30;20041;-69
2022/02/28 05:43:34;;;;;;;35.03;13.48;;;;;;;-149.78;100.00;50350.19;4740786;30;20113;-69
2022/02/28 05:46:00;;;;;;;37.80;14.77;;;;;;;-149.78;100.00;50330.63;4753572;30;20429;-69
2022/02/28 05:48:25;;;;;;;44.72;15.02;;;;;;;-149.78;100.00;50342.38;4753595;30;20469;-69
2022/02/28 05:50:51;;;;;;;47.05;14.43;;;;;;;-149.78;100.00;50314.97;4753579;30;20063;-69
2022/02/28 05:53:17;;;;;;;36.65;13.93;;;;;;;-149.78;100.00;50352.16;4752323;30;20067;-69
2022/02/28 05:55:43;;;;;;;35.05;13.65;;;;;;;-149.78;100.00;50326.72;4753512;30;20032;-69
2022/02/28 05:58:09;;;;;;;38.42;14.18;;;;;;;-149.78;100.00;50307.16;4753234;30;20044;-69
2022/02/28 06:00:35;;;;;;;34.05;14.98;;;;;;;-149.78;100.00;50326.72;4768414;30;20071;-69
2022/02/28 06:03:01;;;;;;;35.63;15.40;;;;;;;-149.78;100.00;50301.28;4771180;30;20438;-69
2022/02/28 06:05:27;;;;;;;44.40;15.27;;;;;;;-149.78;100.00;50330.63;4771047;30;20043;-69
2022/02/28 06:07:52;;;;;;;40.17;15.20;;;;;;;-149.78;100.00;50324.75;4768528;30;20051;-69
2022/02/28 06:10:18;;;;;;;45.17;15.43;;;;;;;-149.78;100.00;50320.84;4755343;30;20044;-69
2022/02/28 06:12:44;;;;;;;48.40;15.65;;;;;;;-149.78;100.00;50346.28;4770940;30;20431;-69
2022/02/28 06:15:10;;;;;;;36.38;15.85;;;;;;;-149.78;100.00;50342.38;4770673;30;20654;-69
2022/02/28 06:17:36;;;;;;;46.20;16.33;;;;;;;-149.78;100.00;50326.72;4770919;30;20040;-69
2022/02/28 06:20:03;;;;;;;40.42;15.95;;;;;;;-149.78;100.00;50326.72;4769427;30;20044;-69
2022/02/28 06:22:30;;;;;;;40.45;14.73;;;;;;;-149.78;100.00;50330.63;4770878;30;20553;-69
2022/02/28 06:24:56;;;;;;;45.15;15.55;;;;;;;-149.78;100.00;50311.06;4760604;30;20044;-69
2022/02/28 06:27:23;;;;;;;37.92;14.25;;;;;;;-149.78;100.00;50338.44;4752956;30;20450;-69
2022/02/28 06:29:49;;;;;;;46.78;15.45;;;;;;;-149.78;100.00;50338.44;4752854;30;20362;-69
2022/02/28 06:32:15;;;;;;;40.15;15.00;;;;;;;-149.78;100.00;50307.16;4737215;30;20047;-69
2022/02/28 06:34:40;;;;;;;39.10;14.75;;;;;;;-149.78;100.00;50311.06;4737164;30;20044;-69
2022/02/28 06:37:06;;;;;;;39.30;13.30;;;;;;;-149.78;100.00;50348.22;4737009;30;20043;-69
2022/02/28 06:39:32;;;;;;;35.45;14.52;;;;;;;-149.78;100.00;50318.91;4736977;30;20044;-69
2022/02/28 06:41:57;;;;;;;45.88;15.13;;;;;;;-149.78;100.00;50354.09;4752757;30;20048;-69
2022/02/28 06:44:23;;;;;;;34.25;14.43;;;;;;;-149.78;100.00;50303.25;4736707;30;20064;-69
2022/02/28 06:46:49;;;;;;;38.45;15.75;;;;;;;-149.78;100.00;50322.81;4752717;30;20041;-69
2022/02/28 06:49:15;;;;;;;37.70;14.93;;;;;;;-149.78;100.00;50358.00;4747580;30;20393;-69
2022/02/28 06:51:40;;;;;;;36.33;14.35;;;;;;;-149.78;100.00;50334.53;4747394;30;20871;-69
2022/02/28 06:54:06;;;;;;;44.30;14.30;;;;;;;-149.78;100.00;50342.38;4746610;30;20049;-69
2022/02/28 06:56:32;;;;;;;36.58;14.65;;;;;;;-149.78;100.00;50369.75;4751772;30;20110;-69
2022/02/28 06:58:57;;;;;;;43.35;14.43;;;;;;;-149.78;100.00;50342.38;4750692;30;20051;-69
2022/02/28 07:01:23;;;;;;;35.13;13.90;;;;;;;-149.78;100.00;50334.53;4748767;30;20362;-69
2022/02/28 07:03:50;;;;;;;33.22;13.90;;;;;;;-149.78;100.00;50303.25;4747718;30;20056;-69
2022/02/28 07:06:20;;;;;;;48.58;16.75;;;;;;;-149.78;100.00;50350.19;4744968;30;20068;-69
2022/02/28 07:08:47;;;;;;;47.70;14.60;;;;;;;-149.78;100.00;50381.47;4751344;30;20493;-69
2022/02/28 07:11:14;;;;;;;40.45;14.20;;;;;;;-149.78;100.00;50295.44;4746337;30;20048;-69
2022/02/28 07:13:40;;;;;;;40.10;14.52;;;;;;;-149.78;100.00;50297.38;4749762;30;20515;-68
2022/02/28 07:16:06;;;;;;;34.78;12.50;;;;;;;-149.78;100.00;50328.69;4760277;30;20063;-69
2022/02/28 07:18:32;;;;;;;37.55;13.55;;;;;;;-149.78;100.00;50291.50;4752126;30;20115;-70
2022/02/28 07:20:58;;;;;;;36.00;13.88;;;;;;;-149.78;100.00;50307.16;4751650;30;20442;-69
2022/02/28 07:23:24;;;;;;;37.58;13.68;;;;;;;-149.78;100.00;50350.19;4750430;30;20036;-69
2022/02/28 07:25:49;;;;;;;38.20;12.93;;;;;;;-149.78;100.00;50326.72;4752225;30;20485;-69
2022/02/28 07:28:16;;;;;;;36.28;13.50;;;;;;;-149.78;100.00;50338.44;4748863;30;20048;-69
2022/02/28 07:30:41;;;;;;;45.08;14.07;;;;;;;-149.78;100.00;50275.88;4742759;30;20047;-69
2022/02/28 07:33:07;;;;;;;36.38;14.07;;;;;;;-149.78;100.00;50307.16;4749284;30;20113;-69
2022/02/28 07:35:33;;;;;;;33.53;13.82;;;;;;;-149.78;100.00;50320.84;4733316;30;20147;-69
2022/02/28 07:37:59;;;;;;;36.03;13.43;;;;;;;-149.78;100.00;50318.91;4752830;30;20135;-69
2022/02/28 07:40:24;;;;;;;36.75;13.70;;;;;;;-149.78;100.00;50307.16;4743436;30;20041;-69
2022/02/28 07:42:50;;;;;;;40.15;14.18;;;;;;;-149.78;100.00;50287.59;4745026;30;20044;-69
2022/02/28 07:45:16;;;;;;;35.92;13.70;;;;;;;-149.78;100.00;50314.97;4747167;30;20049;-69
2022/02/28 07:47:42;;;;;;;41.67;14.32;;;;;;;-149.78;100.00;50299.34;4741674;30;20048;-69
2022/02/28 07:50:09;;;;;;;40.47;15.48;;;;;;;-149.78;100.00;50305.22;4743499;30;20489;-69
2022/02/28 07:52:34;;;;;;;42.17;14.57;;;;;;;-149.78;100.00;50326.72;4747102;30;20036;-69
2022/02/28 07:55:00;;;;;;;38.50;15.25;;;;;;;-149.78;100.00;50336.50;4744705;30;20048;-69
2022/02/28 07:57:25;;;;;;;36.42;13.60;;;;;;;-149.78;100.00;50311.06;4747828;30;20044;-69
2022/02/28 07:59:51;;;;;;;37.33;14.77;;;;;;;-149.78;100.00;50283.69;4731198;30;20040;-69
2022/02/28 08:02:17;;;;;;;40.70;15.07;;;;;;;-149.78;100.00;50342.38;4738172;30;20035;-69
2022/02/28 08:04:43;;;;;;;45.00;15.43;;;;;;;-149.78;100.00;50311.06;4754838;30;20031;-69
2022/02/28 08:07:09;;;;;;;41.85;14.45;;;;;;;-149.78;100.00;50330.63;4749170;30;20040;-69
2022/02/28 08:09:34;;;;;;;40.92;14.57;;;;;;;-149.78;100.00;50338.44;4752471;30;20055;-69
2022/02/28 08:12:01;;;;;;;45.40;15.35;;;;;;;-149.78;100.00;50318.91;4757247;30;20093;-69
2022/02/28 08:14:26;;;;;;;43.30;15.85;;;;;;;-149.78;100.00;50326.72;4755718;30;20048;-68
2022/02/28 08:16:52;;;;;;;38.67;14.27;;;;;;;-149.78;100.00;50334.53;4737999;30;20071;-69
2022/02/28 08:19:19;;;;;;;40.20;16.27;;;;;;;-149.78;100.00;50314.97;4756014;30;20079;-69
2022/02/28 08:21:45;;;;;;;37.42;13.63;;;;;;;-149.78;100.00;50314.97;4757651;30;20130;-69
2022/02/28 08:24:11;;;;;;;39.60;14.05;;;;;;;-149.78;100.00;50299.34;4736101;30;20044;-69
2022/02/28 08:26:37;;;;;;;42.33;15.40;;;;;;;-149.78;100.00;50285.66;4742135;30;20246;-69
2022/02/28 08:29:03;;;;;;;38.17;13.95;;;;;;;-149.78;100.00;50275.88;4753142;30;20036;-69
2022/02/28 08:31:29;;;;;;;42.92;15.38;;;;;;;-149.78;100.00;50301.28;4750784;30;20039;-69
2022/02/28 08:33:54;;;;;;;36.97;13.32;;;;;;;-149.78;100.00;50307.16;4769509;30;20854;-69
2022/02/28 08:36:20;;;;;;;37.70;13.90;;;;;;;-149.78;100.00;50305.22;4756126;30;20492;-69
2022/02/28 08:38:46;;;;;;;36.58;13.43;;;;;;;-149.78;100.00;50311.06;4763031;30;20449;-69
2022/02/28 08:41:12;;;;;;;40.17;13.68;;;;;;;-149.78;100.00;50303.25;4755486;30;20043;-69
2022/02/28 08:43:38;;;;;;;42.20;14.05;;;;;;;-149.78;100.00;50299.34;4755731;30;20072;-69
2022/02/28 08:46:04;;;;;;;42.97;13.18;;;;;;;-149.78;100.00;50332.59;4758346;30;20538;-69
2022/02/28 08:48:29;;;;;;;37.55;13.30;;;;;;;-149.78;100.00;50279.78;4753166;30;20047;-69
2022/02/28 08:50:56;;;;;;;37.53;13.13;;;;;;;-149.78;100.00;50307.16;4764509;30;20031;-69
2022/02/28 08:53:22;;;;;;;37.05;12.93;;;;;;;-149.78;100.00;50305.22;4758636;30;20496;-69
2022/02/28 08:55:47;;;;;;;37.55;13.15;;;;;;;-149.78;100.00;50271.97;4754438;30;20052;-69
2022/02/28 08:58:14;;;;;;;37.78;12.13;;;;;;;-149.78;100.00;50268.03;4759201;30;20043;-68
2022/02/28 09:00:40;;;;;;;32.47;12.65;;;;;;;-149.78;100.00;50311.06;4771830;30;20036;-69
2022/02/28 09:03:07;;;;;;;36.55;13.45;;;;;;;-149.78;100.00;50307.16;4752879;30;20070;-69
2022/02/28 09:05:34;;;;;;;38.88;14.13;;;;;;;-149.78;100.00;50307.16;4768688;30;20040;-69
2022/02/28 09:08:00;;;;;;;37.20;13.70;;;;;;;-149.78;100.00;50279.78;4770515;30;20093;-69
2022/02/28 09:10:25;;;;;;;33.22;13.13;;;;;;;-149.78;100.00;50334.53;4768267;30;20040;-68
2022/02/28 09:12:52;;;;;;;40.83;13.45;;;;;;;-149.78;100.00;50305.22;4770931;30;20067;-68
2022/02/28 09:15:19;;;;;;;46.83;13.13;;;;;;;-149.78;100.00;50309.13;4755375;30;20134;-69
2022/02/28 09:17:44;;;;;;;37.75;14.15;;;;;;;-149.78;100.00;50307.16;4757227;30;20036;-69
2022/02/28 09:20:11;;;;;;;35.40;12.25;;;;;;;-149.78;100.00;50303.25;4766962;30;20043;-69
2022/02/28 09:22:38;;;;;;;37.35;12.60;;;;;;;-149.78;100.00;50256.31;4741143;30;20047;-68
2022/02/28 09:25:04;;;;;;;34.92;14.07;;;;;;;-149.78;100.00;50295.44;4760224;30;20037;-69
2022/02/28 09:27:30;;;;;;;33.63;12.50;;;;;;;-149.78;100.00;50291.50;4753530;30;20366;-68
2022/02/28 09:29:56;;;;;;;32.53;12.98;;;;;;;-149.78;100.00;50336.50;4768553;30;20077;-68
2022/02/28 09:32:21;;;;;;;35.45;13.10;;;;;;;-149.78;100.00;50250.44;4755558;30;20131;-69
2022/02/28 09:34:47;;;;;;;32.85;12.80;;;;;;;-149.78;100.00;50336.50;4731813;30;20056;-69
2022/02/28 09:37:12;;;;;;;35.90;12.30;;;;;;;-149.78;100.00;50283.69;4765925;30;20088;-69
2022/02/28 09:39:38;;;;;;;40.30;13.70;;;;;;;-149.78;100.00;50309.13;4740837;30;20469;-69
2022/02/28 09:42:04;;;;;;;39.28;14.35;;;;;;;-149.78;100.00;50309.13;4767468;30;20368;-68
2022/02/28 09:44:31;;;;;;;30.35;12.50;;;;;;;-149.78;100.00;50289.56;4760744;30;20114;-69
2022/02/28 09:46:59;;;;;;;35.95;12.75;;;;;;;-149.78;100.00;50299.34;4760641;30;20044;-69
2022/02/28 09:49:25;;;;;;;31.83;12.13;;;;;;;-149.78;100.00;50260.22;4767207;30;20491;-69
2022/02/28 09:51:51;;;;;;;35.15;11.98;;;;;;;-149.78;100.00;50295.44;4756265;30;20032;-69
2022/02/28 09:54:17;;;;;;;38.65;12.15;;;;;;;-149.78;100.00;50305.22;4765646;30;20419;-69
2022/02/28 09:56:42;;;;;;;34.42;12.32;;;;;;;-149.78;100.00;50295.44;4761996;30;20040;-69
2022/02/28 09:59:08;;;;;;;31.95;10.68;;;;;;;-149.78;100.00;50301.28;4760272;30;20039;-69
2022/02/28 10:01:34;;;;;;;30.48;11.23;;;;;;;-149.78;100.00;50314.97;4768093;30;20481;-69
2022/02/28 10:04:00;;;;;;;36.00;11.15;;;;;;;-149.78;100.00;50309.13;4756559;30;20053;-69
2022/02/28 10:06:26;;;;;;;30.38;11.65;;;;;;;-149.78;100.00;50271.97;4764326;30;20032;-68
2022/02/28 10:08:59;;;;;;;27.48;11.07;;;;;;;-149.78;100.00;50293.47;4762829;30;20075;-69
2022/02/28 10:11:31;;;;;;;33.15;10.70;;;;;;;-149.78;100.00;50295.44;4736933;30;20397;-68
2022/02/28 10:13:59;;;;;;;30.23;10.45;;;;;;;-149.78;100.00;50285.66;4753488;30;20051;-68
2022/02/28 10:16:33;;;;;;;27.00;10.48;;;;;;;-149.78;100.00;50303.25;4731506;30;20107;-69
2022/02/28 10:18:59;;;;;;;26.23;10.63;;;;;;;-149.78;100.00;50248.50;4742312;30;20044;-68
2022/02/28 10:21:44;;;;;;;31.83;10.10;;;;;;;-149.78;100.00;50291.50;4749551;30;20036;-69
2022/02/28 10:24:17;;;;;;;25.98;9.50;;;;;;;-149.78;100.00;50266.09;4750095;30;20457;-69
2022/02/28 10:26:49;;;;;;;26.42;9.63;;;;;;;-149.78;100.00;50293.47;4759704;30;20384;-69
2022/02/28 10:29:17;;;;;;;;;;;;;;;-149.78;100.00;50260.22;4758368;30;20036;-69
2022/02/28 10:31:45;;;;;;;26.27;9.15;;;;;;;-149.78;100.00;50270.00;4767566;30;20359;-69
2022/02/28 10:34:16;;;;;;;31.77;9.35;;;;;;;-149.78;100.00;50268.03;4757443;30;20472;-69
2022/02/28 10:36:47;;;;;;;26.90;9.52;;;;;;;-149.78;100.00;50260.22;4761916;30;20047;-69
2022/02/28 10:39:13;;;;;;;22.40;9.07;;;;;;;-149.78;100.00;50275.88;4764804;30;20066;-69
2022/02/28 10:41:42;;;;;;;22.63;8.75;;;;;;;-149.78;100.00;50268.03;4755742;30;20472;-69
2022/02/28 10:44:13;;;;;;;23.90;8.65;;;;;;;-149.78;100.00;50240.66;4747088;30;20148;-69
2022/02/28 10:46:42;;;;;;;23.40;8.90;;;;;;;-149.78;100.00;50291.50;4749992;30;20038;-69
2022/02/28 10:49:15;;;;;;;21.27;7.80;;;;;;;-149.78;100.00;50244.59;4725146;30;20036;-69
2022/02/28 10:51:55;;;;;;;19.58;8.15;;;;;;;-149.78;100.00;50275.88;4765395;30;20050;-69
2022/02/28 10:54:37;;;;;;;21.88;8.10;;;;;;;-149.78;100.00;50271.97;4758537;30;20035;-69